sensor_id;sensor_type;location;lat;lon;timestamp;P1;durP1;ratioP1;P2;durP2;ratioP2
24159;SDS011;62385;41.594;23.808;2022-10-16T00:00:36;2.30;;;1.02;;
24159;SDS011;62385;41.594;23.808;2022-10-16T00:03:03;1.97;;;1.13;;
24159;SDS011;62385;41.594;23.808;2022-10-16T00:05:28;6.43;;;1.23;;
24159;SDS011;62385;41.594;23.808;2022-10-16T00:07:54;10.57;;;1.20;;
24159;SDS011;62385;41.594;23.808;2022-10-16T00:10:20;1.23;;;1.13;;
24159;SDS011;62385;41.594;23.808;2022-10-16T00:12:46;1.03;;;0.70;;
24159;SDS011;62385;41.594;23.808;2022-10-16T00:15:12;6.33;;;0.93;;
24159;SDS011;62385;41.594;23.808;2022-10-16T00:17:38;1.13;;;0.57;;
24159;SDS011;62385;41.594;23.808;2022-10-16T00:20:04;0.87;;;0.83;;
24159;SDS011;62385;41.594;23.808;2022-10-16T00:22:30;0.73;;;0.63;;
24159;SDS011;62385;41.594;23.808;2022-10-16T00:24:56;1.27;;;0.60;;
24159;SDS011;62385;41.594;23.808;2022-10-16T00:27:21;2.30;;;0.87;;
24159;SDS011;62385;41.594;23.808;2022-10-16T00:29:50;2.23;;;1.40;;
24159;SDS011;62385;41.594;23.808;2022-10-16T00:32:17;3.03;;;1.63;;
24159;SDS011;62385;41.594;23.808;2022-10-16T00:34:43;2.78;;;0.40;;
24159;SDS011;62385;41.594;23.808;2022-10-16T00:37:10;2.30;;;0.82;;
24159;SDS011;62385;41.594;23.808;2022-10-16T00:39:36;1.53;;;0.80;;
24159;SDS011;62385;41.594;23.808;2022-10-16T00:42:02;1.50;;;0.70;;
24159;SDS011;62385;41.594;23.808;2022-10-16T00:47:11;1.42;;;0.98;;
24159;SDS011;62385;41.594;23.808;2022-10-16T00:49:41;1.85;;;1.10;;
24159;SDS011;62385;41.594;23.808;2022-10-16T00:52:06;1.00;;;0.87;;
24159;SDS011;62385;41.594;23.808;2022-10-16T00:54:32;1.05;;;0.98;;
24159;SDS011;62385;41.594;23.808;2022-10-16T00:57:03;2.67;;;0.60;;
24159;SDS011;62385;41.594;23.808;2022-10-16T00:59:32;3.13;;;1.08;;
24159;SDS011;62385;41.594;23.808;2022-10-16T01:01:59;2.30;;;1.10;;
24159;SDS011;62385;41.594;23.808;2022-10-16T01:04:25;0.60;;;0.60;;
24159;SDS011;62385;41.594;23.808;2022-10-16T01:09:34;0.97;;;0.70;;
24159;SDS011;62385;41.594;23.808;2022-10-16T01:12:23;0.73;;;0.40;;
24159;SDS011;62385;41.594;23.808;2022-10-16T01:14:59;1.17;;;1.07;;
24159;SDS011;62385;41.594;23.808;2022-10-16T01:17:45;1.53;;;0.97;;
24159;SDS011;62385;41.594;23.808;2022-10-16T01:28:41;0.43;;;0.37;;
24159;SDS011;62385;41.594;23.808;2022-10-16T01:31:21;1.60;;;1.03;;
24159;SDS011;62385;41.594;23.808;2022-10-16T01:36:38;1.23;;;0.47;;
24159;SDS011;62385;41.594;23.808;2022-10-16T01:39:06;2.47;;;1.00;;
24159;SDS011;62385;41.594;23.808;2022-10-16T01:41:36;2.33;;;0.50;;
24159;SDS011;62385;41.594;23.808;2022-10-16T01:44:05;1.87;;;0.60;;
24159;SDS011;62385;41.594;23.808;2022-10-16T01:46:34;0.90;;;0.43;;
24159;SDS011;62385;41.594;23.808;2022-10-16T01:49:01;1.33;;;1.00;;
24159;SDS011;62385;41.594;23.808;2022-10-16T01:51:28;0.57;;;0.47;;
24159;SDS011;62385;41.594;23.808;2022-10-16T01:53:57;1.90;;;1.03;;
24159;SDS011;62385;41.594;23.808;2022-10-16T01:56:24;1.27;;;0.73;;
24159;SDS011;62385;41.594;23.808;2022-10-16T01:58:52;1.47;;;1.20;;
24159;SDS011;62385;41.594;23.808;2022-10-16T02:01:23;1.27;;;0.50;;
24159;SDS011;62385;41.594;23.808;2022-10-16T02:03:51;0.80;;;0.80;;
24159;SDS011;62385;41.594;23.808;2022-10-16T02:06:19;0.60;;;0.43;;
24159;SDS011;62385;41.594;23.808;2022-10-16T02:08:44;1.07;;;0.70;;
24159;SDS011;62385;41.594;23.808;2022-10-16T02:11:11;0.63;;;0.60;;
24159;SDS011;62385;41.594;23.808;2022-10-16T02:13:41;1.07;;;0.80;;
24159;SDS011;62385;41.594;23.808;2022-10-16T02:16:12;0.70;;;0.57;;
24159;SDS011;62385;41.594;23.808;2022-10-16T02:18:39;0.50;;;0.20;;
24159;SDS011;62385;41.594;23.808;2022-10-16T02:23:42;0.50;;;0.50;;
24159;SDS011;62385;41.594;23.808;2022-10-16T02:26:12;1.90;;;0.60;;
24159;SDS011;62385;41.594;23.808;2022-10-16T02:28:45;1.13;;;0.80;;
24159;SDS011;62385;41.594;23.808;2022-10-16T02:31:12;4.70;;;1.30;;
24159;SDS011;62385;41.594;23.808;2022-10-16T02:33:43;3.87;;;1.30;;
24159;SDS011;62385;41.594;23.808;2022-10-16T02:36:10;0.40;;;0.37;;
24159;SDS011;62385;41.594;23.808;2022-10-16T02:38:36;1.47;;;1.17;;
24159;SDS011;62385;41.594;23.808;2022-10-16T02:41:04;0.67;;;0.53;;
24159;SDS011;62385;41.594;23.808;2022-10-16T02:43:30;0.93;;;0.60;;
24159;SDS011;62385;41.594;23.808;2022-10-16T02:45:55;1.33;;;0.97;;
24159;SDS011;62385;41.594;23.808;2022-10-16T02:48:21;1.33;;;1.17;;
24159;SDS011;62385;41.594;23.808;2022-10-16T02:50:47;0.87;;;0.80;;
24159;SDS011;62385;41.594;23.808;2022-10-16T02:53:13;1.17;;;0.87;;
24159;SDS011;62385;41.594;23.808;2022-10-16T02:55:38;1.33;;;0.70;;
24159;SDS011;62385;41.594;23.808;2022-10-16T02:58:04;0.93;;;0.57;;
24159;SDS011;62385;41.594;23.808;2022-10-16T03:00:30;1.60;;;1.10;;
24159;SDS011;62385;41.594;23.808;2022-10-16T03:02:55;1.00;;;0.73;;
24159;SDS011;62385;41.594;23.808;2022-10-16T03:05:21;0.30;;;0.30;;
24159;SDS011;62385;41.594;23.808;2022-10-16T03:07:46;1.57;;;0.70;;
24159;SDS011;62385;41.594;23.808;2022-10-16T03:10:12;1.30;;;1.07;;
24159;SDS011;62385;41.594;23.808;2022-10-16T03:12:38;0.43;;;0.43;;
24159;SDS011;62385;41.594;23.808;2022-10-16T03:15:03;0.70;;;0.70;;
24159;SDS011;62385;41.594;23.808;2022-10-16T03:17:29;0.60;;;0.43;;
24159;SDS011;62385;41.594;23.808;2022-10-16T03:19:56;0.90;;;0.67;;
24159;SDS011;62385;41.594;23.808;2022-10-16T03:22:23;1.20;;;0.90;;
24159;SDS011;62385;41.594;23.808;2022-10-16T03:24:49;0.67;;;0.63;;
24159;SDS011;62385;41.594;23.808;2022-10-16T03:27:33;0.60;;;0.40;;
24159;SDS011;62385;41.594;23.808;2022-10-16T03:29:59;1.50;;;1.23;;
24159;SDS011;62385;41.594;23.808;2022-10-16T03:32:24;1.00;;;0.90;;
24159;SDS011;62385;41.594;23.808;2022-10-16T03:34:50;0.70;;;0.50;;
24159;SDS011;62385;41.594;23.808;2022-10-16T03:37:15;0.97;;;0.83;;
24159;SDS011;62385;41.594;23.808;2022-10-16T03:39:41;0.50;;;0.50;;
24159;SDS011;62385;41.594;23.808;2022-10-16T03:42:06;0.60;;;0.40;;
24159;SDS011;62385;41.594;23.808;2022-10-16T03:44:33;0.97;;;0.87;;
24159;SDS011;62385;41.594;23.808;2022-10-16T03:46:59;1.47;;;0.63;;
24159;SDS011;62385;41.594;23.808;2022-10-16T03:49:24;0.90;;;0.47;;
24159;SDS011;62385;41.594;23.808;2022-10-16T03:51:50;0.80;;;0.70;;
24159;SDS011;62385;41.594;23.808;2022-10-16T03:54:15;0.90;;;0.90;;
24159;SDS011;62385;41.594;23.808;2022-10-16T03:56:41;0.67;;;0.67;;
24159;SDS011;62385;41.594;23.808;2022-10-16T03:59:06;0.77;;;0.77;;
24159;SDS011;62385;41.594;23.808;2022-10-16T04:01:32;0.63;;;0.53;;
24159;SDS011;62385;41.594;23.808;2022-10-16T04:03:57;1.90;;;1.73;;
24159;SDS011;62385;41.594;23.808;2022-10-16T04:06:23;1.33;;;0.87;;
24159;SDS011;62385;41.594;23.808;2022-10-16T04:08:49;2.43;;;0.83;;
24159;SDS011;62385;41.594;23.808;2022-10-16T04:11:14;0.83;;;0.83;;
24159;SDS011;62385;41.594;23.808;2022-10-16T04:13:40;0.57;;;0.50;;
24159;SDS011;62385;41.594;23.808;2022-10-16T04:16:06;0.30;;;0.30;;
24159;SDS011;62385;41.594;23.808;2022-10-16T04:18:32;1.60;;;0.83;;
24159;SDS011;62385;41.594;23.808;2022-10-16T04:21:01;1.37;;;0.60;;
24159;SDS011;62385;41.594;23.808;2022-10-16T04:23:28;2.70;;;1.20;;
24159;SDS011;62385;41.594;23.808;2022-10-16T04:25:53;4.20;;;1.17;;
24159;SDS011;62385;41.594;23.808;2022-10-16T04:28:20;6.63;;;1.97;;
24159;SDS011;62385;41.594;23.808;2022-10-16T04:30:45;2.37;;;0.93;;
24159;SDS011;62385;41.594;23.808;2022-10-16T04:33:12;1.70;;;1.27;;
24159;SDS011;62385;41.594;23.808;2022-10-16T04:35:38;11.83;;;1.23;;
24159;SDS011;62385;41.594;23.808;2022-10-16T04:38:03;3.30;;;2.03;;
24159;SDS011;62385;41.594;23.808;2022-10-16T04:40:29;3.23;;;1.17;;
24159;SDS011;62385;41.594;23.808;2022-10-16T04:42:58;6.47;;;1.87;;
24159;SDS011;62385;41.594;23.808;2022-10-16T04:45:24;3.13;;;1.53;;
24159;SDS011;62385;41.594;23.808;2022-10-16T04:47:50;3.03;;;2.40;;
24159;SDS011;62385;41.594;23.808;2022-10-16T04:50:15;1.27;;;0.93;;
24159;SDS011;62385;41.594;23.808;2022-10-16T04:52:59;0.57;;;0.37;;
24159;SDS011;62385;41.594;23.808;2022-10-16T04:55:25;2.57;;;0.70;;
24159;SDS011;62385;41.594;23.808;2022-10-16T04:57:51;1.53;;;1.37;;
24159;SDS011;62385;41.594;23.808;2022-10-16T05:00:35;3.93;;;1.40;;
24159;SDS011;62385;41.594;23.808;2022-10-16T05:03:01;1.47;;;1.37;;
24159;SDS011;62385;41.594;23.808;2022-10-16T05:05:27;4.40;;;3.57;;
24159;SDS011;62385;41.594;23.808;2022-10-16T05:07:53;1.77;;;1.20;;
24159;SDS011;62385;41.594;23.808;2022-10-16T05:10:18;4.57;;;2.00;;
24159;SDS011;62385;41.594;23.808;2022-10-16T05:12:45;1.57;;;1.00;;
24159;SDS011;62385;41.594;23.808;2022-10-16T05:15:11;4.23;;;1.37;;
24159;SDS011;62385;41.594;23.808;2022-10-16T05:17:37;2.20;;;1.70;;
24159;SDS011;62385;41.594;23.808;2022-10-16T05:20:02;1.83;;;1.63;;
24159;SDS011;62385;41.594;23.808;2022-10-16T05:22:28;1.67;;;1.23;;
24159;SDS011;62385;41.594;23.808;2022-10-16T05:24:54;1.70;;;1.23;;
24159;SDS011;62385;41.594;23.808;2022-10-16T05:27:20;0.80;;;0.80;;
24159;SDS011;62385;41.594;23.808;2022-10-16T05:29:46;2.37;;;1.80;;
24159;SDS011;62385;41.594;23.808;2022-10-16T05:32:13;4.77;;;2.67;;
24159;SDS011;62385;41.594;23.808;2022-10-16T05:34:39;2.07;;;1.50;;
24159;SDS011;62385;41.594;23.808;2022-10-16T05:37:04;4.70;;;2.37;;
24159;SDS011;62385;41.594;23.808;2022-10-16T05:39:30;1.57;;;1.47;;
24159;SDS011;62385;41.594;23.808;2022-10-16T05:41:56;3.40;;;1.53;;
24159;SDS011;62385;41.594;23.808;2022-10-16T05:44:21;3.43;;;2.50;;
24159;SDS011;62385;41.594;23.808;2022-10-16T05:47:05;3.40;;;2.67;;
24159;SDS011;62385;41.594;23.808;2022-10-16T05:49:32;6.87;;;4.07;;
24159;SDS011;62385;41.594;23.808;2022-10-16T05:51:57;4.47;;;4.03;;
24159;SDS011;62385;41.594;23.808;2022-10-16T05:54:23;4.83;;;3.33;;
24159;SDS011;62385;41.594;23.808;2022-10-16T05:56:49;2.90;;;2.57;;
24159;SDS011;62385;41.594;23.808;2022-10-16T05:59:14;3.13;;;2.63;;
24159;SDS011;62385;41.594;23.808;2022-10-16T06:01:40;4.77;;;3.17;;
24159;SDS011;62385;41.594;23.808;2022-10-16T06:04:06;5.53;;;2.73;;
24159;SDS011;62385;41.594;23.808;2022-10-16T06:06:32;2.50;;;2.17;;
24159;SDS011;62385;41.594;23.808;2022-10-16T06:08:57;2.33;;;2.07;;
24159;SDS011;62385;41.594;23.808;2022-10-16T06:11:26;2.13;;;1.77;;
24159;SDS011;62385;41.594;23.808;2022-10-16T06:13:54;3.60;;;2.27;;
24159;SDS011;62385;41.594;23.808;2022-10-16T06:16:21;6.73;;;3.17;;
24159;SDS011;62385;41.594;23.808;2022-10-16T06:18:52;5.17;;;2.77;;
24159;SDS011;62385;41.594;23.808;2022-10-16T06:21:20;4.90;;;2.13;;
24159;SDS011;62385;41.594;23.808;2022-10-16T06:23:48;3.50;;;2.07;;
24159;SDS011;62385;41.594;23.808;2022-10-16T06:26:15;5.23;;;2.60;;
24159;SDS011;62385;41.594;23.808;2022-10-16T06:28:42;3.23;;;2.57;;
24159;SDS011;62385;41.594;23.808;2022-10-16T06:31:08;5.77;;;2.10;;
24159;SDS011;62385;41.594;23.808;2022-10-16T06:33:34;4.53;;;2.33;;
24159;SDS011;62385;41.594;23.808;2022-10-16T06:38:39;3.80;;;2.30;;
24159;SDS011;62385;41.594;23.808;2022-10-16T06:41:05;3.33;;;3.03;;
24159;SDS011;62385;41.594;23.808;2022-10-16T06:43:33;4.90;;;3.30;;
24159;SDS011;62385;41.594;23.808;2022-10-16T06:46:00;3.33;;;2.47;;
24159;SDS011;62385;41.594;23.808;2022-10-16T06:48:27;5.17;;;2.17;;
24159;SDS011;62385;41.594;23.808;2022-10-16T06:53:29;3.30;;;2.50;;
24159;SDS011;62385;41.594;23.808;2022-10-16T06:55:56;8.27;;;3.17;;
24159;SDS011;62385;41.594;23.808;2022-10-16T06:58:22;5.13;;;3.03;;
24159;SDS011;62385;41.594;23.808;2022-10-16T07:00:49;2.33;;;2.13;;
24159;SDS011;62385;41.594;23.808;2022-10-16T07:03:21;5.23;;;2.03;;
24159;SDS011;62385;41.594;23.808;2022-10-16T07:05:46;4.15;;;2.85;;
24159;SDS011;62385;41.594;23.808;2022-10-16T07:08:12;3.50;;;2.57;;
24159;SDS011;62385;41.594;23.808;2022-10-16T07:10:38;8.52;;;3.75;;
24159;SDS011;62385;41.594;23.808;2022-10-16T07:13:03;6.47;;;4.53;;
24159;SDS011;62385;41.594;23.808;2022-10-16T07:15:29;7.33;;;4.07;;
24159;SDS011;62385;41.594;23.808;2022-10-16T07:17:54;6.97;;;3.42;;
24159;SDS011;62385;41.594;23.808;2022-10-16T07:20:20;5.32;;;3.78;;
24159;SDS011;62385;41.594;23.808;2022-10-16T07:22:45;9.63;;;5.57;;
24159;SDS011;62385;41.594;23.808;2022-10-16T07:25:11;7.27;;;3.63;;
24159;SDS011;62385;41.594;23.808;2022-10-16T07:27:37;11.17;;;4.30;;
24159;SDS011;62385;41.594;23.808;2022-10-16T07:30:03;9.90;;;3.63;;
24159;SDS011;62385;41.594;23.808;2022-10-16T07:32:31;3.27;;;2.70;;
24159;SDS011;62385;41.594;23.808;2022-10-16T07:34:57;3.67;;;2.43;;
24159;SDS011;62385;41.594;23.808;2022-10-16T07:37:23;2.20;;;2.00;;
24159;SDS011;62385;41.594;23.808;2022-10-16T07:39:49;4.80;;;2.72;;
24159;SDS011;62385;41.594;23.808;2022-10-16T07:42:14;2.35;;;1.92;;
24159;SDS011;62385;41.594;23.808;2022-10-16T07:44:40;3.40;;;2.03;;
24159;SDS011;62385;41.594;23.808;2022-10-16T07:47:06;2.72;;;2.13;;
24159;SDS011;62385;41.594;23.808;2022-10-16T07:49:32;8.30;;;2.10;;
24159;SDS011;62385;41.594;23.808;2022-10-16T07:51:58;2.72;;;1.73;;
24159;SDS011;62385;41.594;23.808;2022-10-16T07:54:23;5.53;;;2.28;;
24159;SDS011;62385;41.594;23.808;2022-10-16T07:56:49;3.85;;;2.58;;
24159;SDS011;62385;41.594;23.808;2022-10-16T07:59:14;2.03;;;1.80;;
24159;SDS011;62385;41.594;23.808;2022-10-16T08:01:40;3.33;;;1.98;;
24159;SDS011;62385;41.594;23.808;2022-10-16T08:04:08;3.83;;;2.88;;
24159;SDS011;62385;41.594;23.808;2022-10-16T08:06:35;5.03;;;2.75;;
24159;SDS011;62385;41.594;23.808;2022-10-16T08:09:02;4.33;;;3.03;;
24159;SDS011;62385;41.594;23.808;2022-10-16T08:11:28;2.20;;;1.38;;
24159;SDS011;62385;41.594;23.808;2022-10-16T08:13:53;2.80;;;1.58;;
24159;SDS011;62385;41.594;23.808;2022-10-16T08:16:19;3.13;;;1.75;;
24159;SDS011;62385;41.594;23.808;2022-10-16T08:18:44;3.63;;;1.77;;
24159;SDS011;62385;41.594;23.808;2022-10-16T08:21:15;4.63;;;2.10;;
24159;SDS011;62385;41.594;23.808;2022-10-16T08:23:42;2.47;;;1.77;;
24159;SDS011;62385;41.594;23.808;2022-10-16T08:26:08;2.22;;;1.90;;
24159;SDS011;62385;41.594;23.808;2022-10-16T08:28:35;3.58;;;1.45;;
24159;SDS011;62385;41.594;23.808;2022-10-16T08:31:05;2.50;;;1.52;;
24159;SDS011;62385;41.594;23.808;2022-10-16T08:33:33;2.03;;;1.75;;
24159;SDS011;62385;41.594;23.808;2022-10-16T08:36:00;3.30;;;1.88;;
24159;SDS011;62385;41.594;23.808;2022-10-16T08:38:26;4.30;;;1.60;;
24159;SDS011;62385;41.594;23.808;2022-10-16T08:40:52;2.03;;;1.70;;
24159;SDS011;62385;41.594;23.808;2022-10-16T08:43:39;1.75;;;1.20;;
24159;SDS011;62385;41.594;23.808;2022-10-16T08:49:05;4.38;;;1.67;;
24159;SDS011;62385;41.594;23.808;2022-10-16T08:51:37;1.10;;;0.80;;
24159;SDS011;62385;41.594;23.808;2022-10-16T08:54:03;1.05;;;0.98;;
24159;SDS011;62385;41.594;23.808;2022-10-16T08:56:49;2.03;;;1.50;;
24159;SDS011;62385;41.594;23.808;2022-10-16T08:59:15;2.03;;;1.40;;
24159;SDS011;62385;41.594;23.808;2022-10-16T09:01:44;1.23;;;0.93;;
24159;SDS011;62385;41.594;23.808;2022-10-16T09:04:36;2.65;;;1.58;;
24159;SDS011;62385;41.594;23.808;2022-10-16T09:12:40;1.33;;;1.02;;
24159;SDS011;62385;41.594;23.808;2022-10-16T09:17:59;1.55;;;1.00;;
24159;SDS011;62385;41.594;23.808;2022-10-16T09:25:42;2.58;;;1.40;;
24159;SDS011;62385;41.594;23.808;2022-10-16T09:28:13;1.83;;;1.08;;
24159;SDS011;62385;41.594;23.808;2022-10-16T09:30:38;5.72;;;2.13;;
24159;SDS011;62385;41.594;23.808;2022-10-16T09:33:04;1.95;;;1.27;;
24159;SDS011;62385;41.594;23.808;2022-10-16T09:35:44;3.08;;;1.45;;
24159;SDS011;62385;41.594;23.808;2022-10-16T09:38:21;1.27;;;1.17;;
24159;SDS011;62385;41.594;23.808;2022-10-16T09:40:51;0.68;;;0.63;;
24159;SDS011;62385;41.594;23.808;2022-10-16T09:43:21;1.80;;;1.33;;
24159;SDS011;62385;41.594;23.808;2022-10-16T09:45:57;5.43;;;1.42;;
24159;SDS011;62385;41.594;23.808;2022-10-16T09:48:28;0.68;;;0.50;;
24159;SDS011;62385;41.594;23.808;2022-10-16T09:51:00;1.98;;;1.00;;
24159;SDS011;62385;41.594;23.808;2022-10-16T09:53:43;1.00;;;0.90;;
24159;SDS011;62385;41.594;23.808;2022-10-16T09:56:10;0.77;;;0.77;;
24159;SDS011;62385;41.594;23.808;2022-10-16T09:58:41;1.00;;;0.77;;
24159;SDS011;62385;41.594;23.808;2022-10-16T10:01:12;1.10;;;0.98;;
24159;SDS011;62385;41.594;23.808;2022-10-16T10:03:58;0.80;;;0.60;;
24159;SDS011;62385;41.594;23.808;2022-10-16T10:09:18;3.22;;;1.33;;
24159;SDS011;62385;41.594;23.808;2022-10-16T10:14:36;6.97;;;0.60;;
24159;SDS011;62385;41.594;23.808;2022-10-16T10:20:11;1.05;;;1.00;;
24159;SDS011;62385;41.594;23.808;2022-10-16T10:22:30;0.80;;;0.63;;
24159;SDS011;62385;41.594;23.808;2022-10-16T10:45:26;0.80;;;0.55;;
24159;SDS011;62385;41.594;23.808;2022-10-16T10:51:03;0.60;;;0.50;;
24159;SDS011;62385;41.594;23.808;2022-10-16T10:56:18;1.48;;;0.85;;
24159;SDS011;62385;41.594;23.808;2022-10-16T11:07:12;4.03;;;2.33;;
24159;SDS011;62385;41.594;23.808;2022-10-16T11:09:43;3.20;;;2.17;;
24159;SDS011;62385;41.594;23.808;2022-10-16T11:12:23;1.15;;;0.98;;
24159;SDS011;62385;41.594;23.808;2022-10-16T11:14:58;3.08;;;2.13;;
24159;SDS011;62385;41.594;23.808;2022-10-16T11:17:39;2.30;;;1.42;;
24159;SDS011;62385;41.594;23.808;2022-10-16T11:20:24;1.17;;;0.90;;
24159;SDS011;62385;41.594;23.808;2022-10-16T11:30:54;0.73;;;0.43;;
24159;SDS011;62385;41.594;23.808;2022-10-16T11:33:37;0.90;;;0.70;;
24159;SDS011;62385;41.594;23.808;2022-10-16T11:36:36;1.35;;;0.90;;
24159;SDS011;62385;41.594;23.808;2022-10-16T11:50:09;0.85;;;0.77;;
24159;SDS011;62385;41.594;23.808;2022-10-16T11:55:28;1.02;;;0.93;;
24159;SDS011;62385;41.594;23.808;2022-10-16T11:58:02;0.82;;;0.77;;
24159;SDS011;62385;41.594;23.808;2022-10-16T12:03:35;1.42;;;1.10;;
24159;SDS011;62385;41.594;23.808;2022-10-16T12:09:24;1.52;;;0.98;;
24159;SDS011;62385;41.594;23.808;2022-10-16T12:11:52;2.35;;;1.30;;
24159;SDS011;62385;41.594;23.808;2022-10-16T12:14:20;1.52;;;1.00;;
24159;SDS011;62385;41.594;23.808;2022-10-16T12:16:52;1.40;;;1.02;;
24159;SDS011;62385;41.594;23.808;2022-10-16T12:19:21;1.65;;;0.90;;
24159;SDS011;62385;41.594;23.808;2022-10-16T12:21:48;1.00;;;0.90;;
24159;SDS011;62385;41.594;23.808;2022-10-16T12:24:34;1.55;;;1.02;;
24159;SDS011;62385;41.594;23.808;2022-10-16T12:27:01;1.27;;;0.60;;
24159;SDS011;62385;41.594;23.808;2022-10-16T12:32:03;0.80;;;0.60;;
24159;SDS011;62385;41.594;23.808;2022-10-16T12:34:39;1.40;;;0.43;;
24159;SDS011;62385;41.594;23.808;2022-10-16T12:37:15;1.23;;;0.73;;
24159;SDS011;62385;41.594;23.808;2022-10-16T12:39:53;1.50;;;0.70;;
24159;SDS011;62385;41.594;23.808;2022-10-16T12:42:30;0.73;;;0.70;;
24159;SDS011;62385;41.594;23.808;2022-10-16T12:44:58;0.60;;;0.60;;
24159;SDS011;62385;41.594;23.808;2022-10-16T12:49:56;0.80;;;0.65;;
24159;SDS011;62385;41.594;23.808;2022-10-16T12:52:27;1.45;;;1.02;;
24159;SDS011;62385;41.594;23.808;2022-10-16T12:54:58;1.15;;;1.05;;
24159;SDS011;62385;41.594;23.808;2022-10-16T12:57:46;1.42;;;0.63;;
24159;SDS011;62385;41.594;23.808;2022-10-16T13:00:25;1.77;;;0.85;;
24159;SDS011;62385;41.594;23.808;2022-10-16T13:06:35;0.43;;;0.38;;
24159;SDS011;62385;41.594;23.808;2022-10-16T13:24:15;1.15;;;0.80;;
24159;SDS011;62385;41.594;23.808;2022-10-16T13:29:17;2.88;;;1.25;;
24159;SDS011;62385;41.594;23.808;2022-10-16T13:31:44;1.92;;;0.85;;
24159;SDS011;62385;41.594;23.808;2022-10-16T13:34:12;0.98;;;0.80;;
24159;SDS011;62385;41.594;23.808;2022-10-16T13:36:59;0.68;;;0.52;;
24159;SDS011;62385;41.594;23.808;2022-10-16T13:39:28;0.60;;;0.60;;
24159;SDS011;62385;41.594;23.808;2022-10-16T13:42:14;0.98;;;0.80;;
24159;SDS011;62385;41.594;23.808;2022-10-16T13:44:49;0.70;;;0.52;;
24159;SDS011;62385;41.594;23.808;2022-10-16T13:47:17;0.93;;;0.70;;
24159;SDS011;62385;41.594;23.808;2022-10-16T13:49:43;0.63;;;0.38;;
24159;SDS011;62385;41.594;23.808;2022-10-16T13:52:17;2.15;;;0.90;;
24159;SDS011;62385;41.594;23.808;2022-10-16T13:54:44;0.32;;;0.30;;
24159;SDS011;62385;41.594;23.808;2022-10-16T13:57:16;1.02;;;0.88;;
24159;SDS011;62385;41.594;23.808;2022-10-16T13:59:43;0.90;;;0.65;;
24159;SDS011;62385;41.594;23.808;2022-10-16T14:02:15;0.70;;;0.50;;
24159;SDS011;62385;41.594;23.808;2022-10-16T14:05:02;1.52;;;1.02;;
24159;SDS011;62385;41.594;23.808;2022-10-16T14:07:31;4.70;;;0.73;;
24159;SDS011;62385;41.594;23.808;2022-10-16T14:10:00;0.73;;;0.68;;
24159;SDS011;62385;41.594;23.808;2022-10-16T14:12:29;0.73;;;0.52;;
24159;SDS011;62385;41.594;23.808;2022-10-16T14:14:55;1.10;;;1.00;;
24159;SDS011;62385;41.594;23.808;2022-10-16T14:17:24;0.85;;;0.45;;
24159;SDS011;62385;41.594;23.808;2022-10-16T14:19:52;4.72;;;0.80;;
24159;SDS011;62385;41.594;23.808;2022-10-16T14:24:51;1.60;;;0.90;;
24159;SDS011;62385;41.594;23.808;2022-10-16T14:27:55;1.08;;;0.95;;
24159;SDS011;62385;41.594;23.808;2022-10-16T14:32:54;1.33;;;0.82;;
24159;SDS011;62385;41.594;23.808;2022-10-16T14:37:53;1.63;;;1.13;;
24159;SDS011;62385;41.594;23.808;2022-10-16T14:40:20;0.77;;;0.50;;
24159;SDS011;62385;41.594;23.808;2022-10-16T14:42:54;2.00;;;1.20;;
24159;SDS011;62385;41.594;23.808;2022-10-16T14:45:24;1.40;;;0.90;;
24159;SDS011;62385;41.594;23.808;2022-10-16T14:47:53;0.80;;;0.70;;
24159;SDS011;62385;41.594;23.808;2022-10-16T14:50:23;0.85;;;0.65;;
24159;SDS011;62385;41.594;23.808;2022-10-16T14:52:49;1.42;;;1.00;;
24159;SDS011;62385;41.594;23.808;2022-10-16T14:55:16;0.80;;;0.63;;
24159;SDS011;62385;41.594;23.808;2022-10-16T14:57:42;0.75;;;0.75;;
24159;SDS011;62385;41.594;23.808;2022-10-16T15:00:21;1.55;;;1.13;;
24159;SDS011;62385;41.594;23.808;2022-10-16T15:02:48;1.90;;;0.85;;
24159;SDS011;62385;41.594;23.808;2022-10-16T15:07:40;21.10;;;11.27;;
24159;SDS011;62385;41.594;23.808;2022-10-16T15:10:06;7.80;;;3.22;;
24159;SDS011;62385;41.594;23.808;2022-10-16T15:12:32;50.83;;;15.50;;
24159;SDS011;62385;41.594;23.808;2022-10-16T15:14:58;29.88;;;13.60;;
24159;SDS011;62385;41.594;23.808;2022-10-16T15:17:23;35.78;;;16.75;;
24159;SDS011;62385;41.594;23.808;2022-10-16T15:19:49;32.58;;;11.73;;
24159;SDS011;62385;41.594;23.808;2022-10-16T15:22:16;27.05;;;9.90;;
24159;SDS011;62385;41.594;23.808;2022-10-16T15:24:42;32.00;;;10.75;;
24159;SDS011;62385;41.594;23.808;2022-10-16T15:27:07;21.13;;;6.25;;
24159;SDS011;62385;41.594;23.808;2022-10-16T15:29:33;10.48;;;4.50;;
24159;SDS011;62385;41.594;23.808;2022-10-16T15:31:59;10.50;;;4.95;;
24159;SDS011;62385;41.594;23.808;2022-10-16T15:34:24;8.00;;;4.15;;
24159;SDS011;62385;41.594;23.808;2022-10-16T15:37:08;14.55;;;4.78;;
24159;SDS011;62385;41.594;23.808;2022-10-16T15:39:34;12.00;;;5.28;;
24159;SDS011;62385;41.594;23.808;2022-10-16T15:41:59;6.05;;;3.92;;
24159;SDS011;62385;41.594;23.808;2022-10-16T15:44:25;14.85;;;7.47;;
24159;SDS011;62385;41.594;23.808;2022-10-16T15:46:54;12.10;;;6.45;;
24159;SDS011;62385;41.594;23.808;2022-10-16T15:49:21;13.77;;;6.10;;
24159;SDS011;62385;41.594;23.808;2022-10-16T15:51:47;13.98;;;5.55;;
24159;SDS011;62385;41.594;23.808;2022-10-16T15:54:12;9.82;;;5.25;;
24159;SDS011;62385;41.594;23.808;2022-10-16T15:56:38;7.68;;;3.75;;
24159;SDS011;62385;41.594;23.808;2022-10-16T15:59:04;8.38;;;4.15;;
24159;SDS011;62385;41.594;23.808;2022-10-16T16:01:33;7.38;;;3.13;;
24159;SDS011;62385;41.594;23.808;2022-10-16T16:03:59;8.73;;;3.53;;
24159;SDS011;62385;41.594;23.808;2022-10-16T16:06:25;5.50;;;3.95;;
24159;SDS011;62385;41.594;23.808;2022-10-16T16:08:51;7.75;;;4.03;;
24159;SDS011;62385;41.594;23.808;2022-10-16T16:11:18;6.15;;;3.72;;
24159;SDS011;62385;41.594;23.808;2022-10-16T16:13:46;8.73;;;4.15;;
24159;SDS011;62385;41.594;23.808;2022-10-16T16:25:07;18.13;;;9.15;;
24159;SDS011;62385;41.594;23.808;2022-10-16T16:27:38;34.53;;;18.85;;
24159;SDS011;62385;41.594;23.808;2022-10-16T16:30:09;16.83;;;9.13;;
24159;SDS011;62385;41.594;23.808;2022-10-16T16:32:37;19.08;;;9.48;;
24159;SDS011;62385;41.594;23.808;2022-10-16T16:35:03;15.50;;;7.75;;
24159;SDS011;62385;41.594;23.808;2022-10-16T16:37:31;6.72;;;4.03;;
24159;SDS011;62385;41.594;23.808;2022-10-16T16:39:57;5.82;;;3.67;;
24159;SDS011;62385;41.594;23.808;2022-10-16T16:42:30;3.42;;;2.47;;
24159;SDS011;62385;41.594;23.808;2022-10-16T16:45:41;4.28;;;3.58;;
24159;SDS011;62385;41.594;23.808;2022-10-16T16:52:57;9.27;;;4.03;;
24159;SDS011;62385;41.594;23.808;2022-10-16T16:55:22;9.77;;;5.28;;
24159;SDS011;62385;41.594;23.808;2022-10-16T16:57:48;10.45;;;5.07;;
24159;SDS011;62385;41.594;23.808;2022-10-16T17:00:13;6.68;;;4.28;;
24159;SDS011;62385;41.594;23.808;2022-10-16T17:02:39;2.17;;;1.40;;
24159;SDS011;62385;41.594;23.808;2022-10-16T17:05:08;4.45;;;2.92;;
24159;SDS011;62385;41.594;23.808;2022-10-16T17:07:34;5.07;;;2.97;;
24159;SDS011;62385;41.594;23.808;2022-10-16T17:10:00;5.75;;;3.85;;
24159;SDS011;62385;41.594;23.808;2022-10-16T17:12:28;4.47;;;2.25;;
24159;SDS011;62385;41.594;23.808;2022-10-16T17:14:56;1.52;;;1.08;;
24159;SDS011;62385;41.594;23.808;2022-10-16T17:17:21;2.10;;;0.93;;
24159;SDS011;62385;41.594;23.808;2022-10-16T17:19:49;2.13;;;0.70;;
24159;SDS011;62385;41.594;23.808;2022-10-16T17:22:15;2.35;;;1.45;;
24159;SDS011;62385;41.594;23.808;2022-10-16T17:24:42;3.58;;;1.73;;